Ada, MI

8:43 PM EDT on August 21, 2014 (GMT -0400)
Timber Canyon | Change Station
CLOSE
Current Station
Personal Weather Station
Location: Ada, MI
Elevation: 755 ft
Nearby Weather Stations

Elev 755 ft 42.93 °N, 85.48 °W | Updated 5 minutes ago

Mostly Cloudy
Mostly Cloudy
73.8 °F
Feels Like 71 °F
N
0.0
Wind Variable Wind from ESE
Gusts 0.0 mph

Today
High -- | Low -- °F
--% Chance of Precip.
Yesterday
High -- | Low -- °F
Precip. -- in
6:54 AM 8:34 PM
Waning Crescent, 11% visible
Pressure 29.96 in
Visibility 10.0 miles
Clouds Scattered Clouds 1700 ft
Mostly Cloudy 11000 ft
Mostly Cloudy 21000 ft
Heat Index 71 °F
Dew Point 72 °F
Humidity 94%
Rainfall 0.00 in
Snow Depth Not available.
UV 0 out of 12
Pollen 9.50 out of 12
Ozone Good
PM2.5 Moderate
Flu Activity Not available.
METAR KGRR 212353Z 22009KT 10SM SCT017 BKN110 BKN210 24/23 A2996 RMK AO2 SLP143 60000 T02440228 10267 20244 55002

More Conditions Fewer Conditions

Pressure 29.96 in
Visibility 10.0 miles
Clouds Scattered Clouds 1700 ft
Mostly Cloudy 11000 ft
Mostly Cloudy 21000 ft
Heat Index 71 °F
Dew Point 72 °F
Humidity 94%
Rainfall 0.00 in
Snow Depth Not available.
UV 0 out of 12
Pollen 9.50 out of 12
Ozone Good
PM2.5 Moderate
Flu Activity Not available.
METAR KGRR 212353Z 22009KT 10SM SCT017 BKN110 BKN210 24/23 A2996 RMK AO2 SLP143 60000 T02440228 10267 20244 55002

More Conditions Fewer Conditions

10-Day Weather Forecast

Almanac

Astronomy

Aug. 21, 2014 Rise Set
Actual Time 6:54 AM EDT 8:34 PM EDT
Civil Twilight 6:24 AM EDT 9:04 PM EDT
Nautical Twilight 5:47 AM EDT 9:41 PM EDT
Astronomical Twilight 5:08 AM EDT 10:20 PM EDT
Moon 3:21 AM EDT (8/21) 6:05 PM EDT (8/21)
Length of Visible Light 14h 40m
Length of Day
13h 40m
Tomorrow will be 2m 41s shorter.
Waning Crescent, 11% of the Moon is Illuminated
Today
Waning Crescent
Aug 25
New
Sep 2
First Quarter
Sep 8
Full
Sep 15
Last Quarter

Today's Extremes

State Highs State Lows

Community

WunderPhotos

Upload Photos

1,746,088 photos uploaded!

Nearby

Air Quality

  Air Quality AQ Index Pollutant
Yesterday Good
OZONE
Yesterday Good
PM2.5
Current Moderate
PM2.5
Current Good
OZONE
Thursday Good
OZONE
Thursday Good
PM2.5
Friday Moderate
PM2.5
Friday Good
OZONE
Saturday Moderate
PM2.5
Saturday Good
OZONE
Sunday Moderate
OZONE
Sunday Moderate
PM2.5

Snow Depth

Station Depth Elevation
No new snow has been reported.

Earthquake Activity

City Distance Mag. Time & Date
No recent earthquake activity has been reported nearby.
Minimum magnitude displayed is 2.5.

Coastal Water Temperatures

Place Temperature
No Stations Reporting

Nearby Weather Stations